Time;durP1;ratioP1;P1;durP2;ratioP2;P2;SDS_P1;SDS_P2;PMS_P1;PMS_P2;Temp;Humidity;BMP_temperature;BMP_pressure;BME280_temperature;BME280_humidity;BME280_pressure;Samples;Min_cycle;Max_cycle;Signal;HPM_P1;HPM_P2
2023/07/02 00:01:48;;;;;;;6.03;1.55;;;;;;;18.04;83.85;100827.00;4991026;28;101094;-26
2023/07/02 00:04:16;;;;;;;3.53;1.45;;;;;;;17.94;83.41;100812.44;4992462;28;97857;-27
2023/07/02 00:06:48;;;;;;;3.13;1.73;;;;;;;17.97;83.78;100824.00;4989859;28;97195;-27
2023/07/02 00:09:14;;;;;;;;;;;;;;;17.96;83.65;100824.13;4993197;28;96914;-27
2023/07/02 00:11:41;;;;;;;3.03;1.42;;;;;;;17.92;83.38;100819.94;4990997;28;101326;-27
2023/07/02 00:14:08;;;;;;;3.55;1.45;;;;;;;17.86;83.25;100813.16;4990968;28;100787;-27
2023/07/02 00:16:35;;;;;;;4.90;1.42;;;;;;;17.91;82.81;100824.56;4991157;28;96425;-26
2023/07/02 00:19:00;;;;;;;4.55;1.70;;;;;;;17.83;83.12;100814.31;4990988;28;96819;-27
2023/07/02 00:21:28;;;;;;;2.50;1.42;;;;;;;17.84;83.20;100820.66;4992400;28;97900;-27
2023/07/02 00:23:57;;;;;;;2.40;1.30;;;;;;;17.76;83.21;100818.59;4991145;28;99138;-27
2023/07/02 00:26:27;;;;;;;2.80;1.48;;;;;;;17.70;82.97;100821.91;4992094;28;96627;-27
2023/07/02 00:28:56;;;;;;;2.42;1.38;;;;;;;17.71;82.76;100828.22;4990734;28;96845;-27
2023/07/02 00:31:22;;;;;;;3.25;1.50;;;;;;;17.65;82.96;100831.56;4991435;28;99590;-27
2023/07/02 00:33:48;;;;;;;6.55;2.13;;;;;;;17.60;82.05;100826.50;4990787;28;100857;-26
2023/07/02 00:36:17;;;;;;;7.00;2.10;;;;;;;17.57;81.61;100824.03;4992039;28;96637;-27
2023/07/02 00:38:44;;;;;;;5.15;1.73;;;;;;;17.57;81.27;100826.78;4990804;28;96890;-28
2023/07/02 00:41:11;;;;;;;5.88;1.92;;;;;;;17.52;81.57;100834.53;4990497;28;99463;-27
2023/07/02 00:43:43;;;;;;;4.60;2.20;;;;;;;17.39;80.19;100819.22;4990534;28;99093;-27
2023/07/02 00:46:11;;;;;;;4.30;2.00;;;;;;;17.36;79.31;100827.72;4990784;28;96547;-27
2023/07/02 00:48:39;;;;;;;5.60;2.00;;;;;;;17.36;79.10;100833.19;4991029;28;96930;-27
2023/07/02 00:51:05;;;;;;;7.82;2.38;;;;;;;17.32;78.98;100830.88;4990555;28;101102;-27
2023/07/02 00:53:32;;;;;;;5.20;2.70;;;;;;;17.29;77.87;100834.75;4990406;28;100998;-27
2023/07/02 00:55:57;;;;;;;5.70;2.40;;;;;;;17.28;78.17;100840.38;4989980;28;97018;-27
2023/07/02 00:58:23;;;;;;;8.82;2.92;;;;;;;17.22;77.64;100835.47;4992124;28;96779;-27
2023/07/02 01:00:48;;;;;;;5.25;2.15;;;;;;;17.19;77.89;100839.34;4991604;28;99122;-27
2023/07/02 01:03:14;;;;;;;4.55;2.13;;;;;;;17.18;77.44;100851.28;4991723;28;97738;-27
2023/07/02 01:05:41;;;;;;;7.50;2.65;;;;;;;17.16;77.66;100848.69;4991978;28;96698;-27
2023/07/02 01:08:07;;;;;;;6.38;2.50;;;;;;;17.09;77.23;100846.63;4991882;28;96828;-27
2023/07/02 01:10:35;;;;;;;8.80;2.33;;;;;;;17.04;76.63;100841.59;4991657;28;97213;-27
2023/07/02 01:13:06;;;;;;;5.63;2.38;;;;;;;16.94;76.06;100835.16;4990529;28;101371;-27
2023/07/02 01:15:32;;;;;;;4.80;2.00;;;;;;;16.95;76.27;100847.88;4990380;28;96655;-27
2023/07/02 01:17:58;;;;;;;7.72;2.72;;;;;;;16.88;75.46;100841.19;4991620;28;96851;-27
2023/07/02 01:20:26;;;;;;;11.30;2.70;;;;;;;16.86;75.11;100852.28;4994635;28;98097;-28
2023/07/02 01:22:52;;;;;;;9.05;2.33;;;;;;;16.87;75.13;100859.47;4994906;28;97835;-27
2023/07/02 01:25:18;;;;;;;6.68;2.83;;;;;;;16.83;74.34;100858.03;4993584;28;96626;-27
2023/07/02 01:27:44;;;;;;;8.05;3.08;;;;;;;16.83;74.69;100852.56;4993654;28;96794;-27
2023/07/02 01:30:10;;;;;;;10.00;2.95;;;;;;;16.77;74.10;100855.78;4995087;28;98160;-26
2023/07/02 01:32:36;;;;;;;6.13;2.67;;;;;;;16.77;73.98;100856.63;4993449;28;101296;-27
2023/07/02 01:35:02;;;;;;;6.90;2.83;;;;;;;16.75;73.12;100850.44;4993150;28;96841;-27
2023/07/02 01:37:27;;;;;;;13.32;2.53;;;;;;;16.74;73.49;100853.31;4994504;28;96764;-27
2023/07/02 01:39:53;;;;;;;7.55;2.55;;;;;;;16.72;73.32;100850.72;4994659;28;99467;-27
2023/07/02 01:42:19;;;;;;;8.90;2.60;;;;;;;16.73;73.39;100847.00;4994774;28;97877;-28
2023/07/02 01:44:47;;;;;;;6.30;2.97;;;;;;;16.72;72.93;100847.97;4992987;28;97334;-26
2023/07/02 01:47:13;;;;;;;11.60;2.70;;;;;;;16.63;73.28;100835.09;4993356;28;96947;-26
2023/07/02 01:49:38;;;;;;;8.23;2.78;;;;;;;16.65;72.80;100854.13;4994703;28;97866;-27
2023/07/02 01:52:05;;;;;;;10.20;3.40;;;;;;;16.67;73.17;100850.25;4994256;28;98440;-28
2023/07/02 01:54:33;;;;;;;6.50;2.63;;;;;;;16.61;72.13;100850.78;4993257;28;96792;-27
2023/07/02 01:56:58;;;;;;;9.10;2.60;;;;;;;16.59;72.27;100852.81;4993156;28;96962;-27
2023/07/02 01:59:24;;;;;;;5.93;2.60;;;;;;;16.55;72.32;100849.44;4994250;28;98826;-27
2023/07/02 02:01:50;;;;;;;6.72;2.55;;;;;;;16.51;71.74;100847.97;4993782;28;97775;-28
2023/07/02 02:04:15;;;;;;;9.43;2.95;;;;;;;16.48;71.60;100840.03;4994596;28;96538;-27
2023/07/02 02:06:41;;;;;;;4.30;2.05;;;;;;;16.47;71.44;100837.44;4994272;28;96780;-27
2023/07/02 02:09:07;;;;;;;9.27;2.92;;;;;;;16.47;70.73;100854.72;4993993;28;97957;-28
2023/07/02 02:11:38;;;;;;;7.55;2.70;;;;;;;16.46;71.14;100850.25;4994330;28;97881;-26
2023/07/02 02:14:03;;;;;;;10.60;2.78;;;;;;;16.41;71.07;100852.50;4993174;28;96670;-27
2023/07/02 02:16:29;;;;;;;5.38;2.25;;;;;;;16.40;71.54;100860.84;4994146;28;96898;-27
2023/07/02 02:18:54;;;;;;;5.25;2.15;;;;;;;16.40;71.13;100861.72;4992877;28;100979;-29
2023/07/02 02:21:21;;;;;;;4.95;2.20;;;;;;;16.36;70.60;100868.44;4994151;28;97791;-27
2023/07/02 02:23:47;;;;;;;5.72;2.85;;;;;;;16.33;70.33;100866.84;4992871;28;96581;-26
2023/07/02 02:26:13;;;;;;;10.43;2.58;;;;;;;16.28;71.16;100869.09;4993109;28;96841;-27
2023/07/02 02:28:38;;;;;;;6.57;2.75;;;;;;;16.28;70.77;100874.56;4994057;28;98110;-27
2023/07/02 02:31:04;;;;;;;6.05;2.55;;;;;;;16.28;70.08;100880.03;4993385;28;97892;-27
2023/07/02 02:33:30;;;;;;;8.82;2.75;;;;;;;16.27;69.85;100891.97;4993713;28;96780;-27
2023/07/02 02:35:55;;;;;;;10.73;3.28;;;;;;;16.22;68.96;100886.03;4992074;28;97417;-27
2023/07/02 02:38:20;;;;;;;10.38;3.17;;;;;;;16.19;69.13;100877.22;4993800;28;97718;-28
2023/07/02 02:40:46;;;;;;;7.85;3.20;;;;;;;16.18;69.24;100884.53;4993841;28;97773;-27
2023/07/02 02:43:11;;;;;;;8.25;2.75;;;;;;;16.23;68.79;100889.63;4992430;28;96752;-27
2023/07/02 02:45:37;;;;;;;10.93;2.50;;;;;;;16.22;69.64;100891.47;4993902;28;96773;-27
2023/07/02 02:48:02;;;;;;;8.10;2.33;;;;;;;16.21;68.92;100894.34;4993760;28;97419;-27
2023/07/02 02:50:28;;;;;;;6.30;2.38;;;;;;;16.18;69.09;100889.13;4994024;28;97916;-27
2023/07/02 02:52:53;;;;;;;8.10;2.88;;;;;;;16.20;69.61;100885.28;4992378;28;96542;-27
2023/07/02 02:55:19;;;;;;;5.90;2.25;;;;;;;16.17;69.00;100888.28;4993832;28;96743;-28
2023/07/02 02:57:44;;;;;;;8.88;3.00;;;;;;;16.18;68.79;100905.53;4993105;28;98173;-28
2023/07/02 03:00:11;;;;;;;7.75;2.40;;;;;;;16.10;68.02;100896.13;4993710;28;97243;-27
2023/07/02 03:02:37;;;;;;;7.15;3.08;;;;;;;16.14;68.42;100911.28;4992261;28;96599;-27
2023/07/02 03:05:03;;;;;;;7.75;3.20;;;;;;;16.06;68.46;100896.50;4992179;28;96816;-27
2023/07/02 03:07:29;;;;;;;10.43;2.58;;;;;;;16.07;68.88;100903.72;4991925;28;101092;-27
2023/07/02 03:09:55;;;;;;;6.75;2.33;;;;;;;16.08;68.76;100900.84;4992019;28;101109;-26
2023/07/02 03:12:21;;;;;;;5.97;2.28;;;;;;;16.08;68.37;100906.31;4993660;28;96622;-28
2023/07/02 03:14:47;;;;;;;6.43;1.90;;;;;;;16.03;68.20;100900.38;4993886;28;96755;-27
2023/07/02 03:17:13;;;;;;;7.72;2.42;;;;;;;16.04;69.07;100899.38;4993100;28;98880;-27
2023/07/02 03:19:38;;;;;;;7.13;2.85;;;;;;;15.98;68.75;100888.09;4993069;28;97786;-27
2023/07/02 03:22:04;;;;;;;7.78;2.60;;;;;;;15.99;69.29;100896.16;4993265;28;96523;-27
2023/07/02 03:24:29;;;;;;;7.82;2.25;;;;;;;15.99;69.03;100901.59;4993354;28;96944;-27
2023/07/02 03:26:55;;;;;;;5.70;2.13;;;;;;;16.03;69.57;100902.25;4993194;28;97883;-27
2023/07/02 03:29:20;;;;;;;8.02;2.63;;;;;;;15.97;69.78;100900.91;4993245;28;97807;-27
2023/07/02 03:31:46;;;;;;;9.95;3.10;;;;;;;16.00;69.53;100914.28;4993181;28;97832;-27
2023/07/02 03:34:12;;;;;;;9.80;3.03;;;;;;;15.93;69.59;100902.13;4992763;28;96825;-27
2023/07/02 03:36:37;;;;;;;5.50;2.35;;;;;;;15.93;69.70;100902.13;4992537;28;97856;-27
2023/07/02 03:39:04;;;;;;;13.80;2.80;;;;;;;15.90;69.88;100913.34;4993389;28;98302;-27
2023/07/02 03:41:29;;;;;;;8.35;2.55;;;;;;;15.91;69.79;100904.13;4990363;28;96710;-27
2023/07/02 03:43:55;;;;;;;8.00;3.03;;;;;;;15.85;69.39;100915.56;4993072;28;96865;-27
2023/07/02 03:46:20;;;;;;;9.18;2.95;;;;;;;15.87;69.02;100919.91;4992165;28;98846;-27
2023/07/02 03:48:45;;;;;;;6.07;2.38;;;;;;;15.84;68.98;100916.56;4992508;28;97346;-27
2023/07/02 03:51:14;;;;;;;10.25;2.85;;;;;;;15.83;69.00;100907.50;4992616;28;96618;-27
2023/07/02 03:53:39;;;;;;;9.13;2.53;;;;;;;15.89;69.00;100917.03;4992806;28;96754;-27
2023/07/02 03:56:05;;;;;;;10.32;3.08;;;;;;;15.88;68.27;100926.25;4992664;28;98050;-27
2023/07/02 03:58:30;;;;;;;9.13;2.22;;;;;;;15.84;68.69;100922.88;4992758;28;97801;-28
2023/07/02 04:00:55;;;;;;;6.53;2.63;;;;;;;15.81;68.00;100916.81;4992931;28;96694;-27
2023/07/02 04:03:21;;;;;;;11.68;2.72;;;;;;;15.81;68.04;100923.16;4992808;28;96850;-26
2023/07/02 04:05:46;;;;;;;5.60;2.35;;;;;;;15.83;68.41;100926.63;4992622;28;97979;-27
2023/07/02 04:08:12;;;;;;;8.50;2.72;;;;;;;15.81;67.79;100927.75;4992273;28;99372;-27
2023/07/02 04:10:37;;;;;;;8.82;2.50;;;;;;;15.76;68.29;100919.94;4991992;28;96516;-27
2023/07/02 04:13:02;;;;;;;7.40;2.35;;;;;;;15.81;67.81;100941.41;4992778;28;96830;-27
2023/07/02 04:15:28;;;;;;;9.02;2.10;;;;;;;15.78;67.87;100936.16;4992188;28;100100;-27
2023/07/02 04:17:53;;;;;;;7.25;2.17;;;;;;;15.81;67.65;100935.94;4992438;28;97961;-28
2023/07/02 04:20:20;;;;;;;5.63;1.83;;;;;;;15.84;68.27;100942.00;4992298;28;96554;-27
2023/07/02 04:22:46;;;;;;;4.15;1.95;;;;;;;15.85;68.03;100943.75;4992562;28;96795;-27
2023/07/02 04:25:14;;;;;;;7.25;2.30;;;;;;;15.82;68.31;100951.31;4992228;28;97406;-27
2023/07/02 04:27:40;;;;;;;14.20;2.58;;;;;;;15.82;68.12;100957.66;4991040;28;99592;-27
2023/07/02 04:30:08;;;;;;;8.48;2.38;;;;;;;15.84;68.15;100946.59;4991109;28;96665;-27
2023/07/02 04:32:33;;;;;;;8.73;2.20;;;;;;;15.83;68.08;100947.63;4990756;28;96959;-27
2023/07/02 04:34:59;;;;;;;6.18;2.13;;;;;;;15.89;68.60;100956.16;4991645;28;98107;-27
2023/07/02 04:37:24;;;;;;;7.90;2.22;;;;;;;15.90;67.90;100952.44;4991702;28;97311;-27
2023/07/02 04:39:49;;;;;;;7.13;2.28;;;;;;;15.91;67.78;100958.75;4992301;28;96568;-27
2023/07/02 04:42:15;;;;;;;5.57;2.40;;;;;;;15.94;67.70;100963.97;4992213;28;96730;-27
2023/07/02 04:44:43;;;;;;;6.15;1.88;;;;;;;15.90;67.51;100938.78;4992350;28;97557;-27
2023/07/02 04:47:08;;;;;;;6.07;2.80;;;;;;;15.93;67.11;100957.66;4990437;28;100891;-27
2023/07/02 04:49:34;;;;;;;8.10;2.65;;;;;;;15.87;67.47;100958.16;4992177;28;96472;-27
2023/07/02 04:51:59;;;;;;;11.38;2.78;;;;;;;15.86;67.79;100966.47;4992635;28;96377;-27
2023/07/02 04:54:24;;;;;;;5.45;1.92;;;;;;;15.84;67.64;100969.31;4995298;28;98048;-27
2023/07/02 04:56:50;;;;;;;6.63;2.38;;;;;;;15.89;67.81;100980.72;4995182;28;99158;-27
2023/07/02 04:59:16;;;;;;;6.75;2.42;;;;;;;15.88;67.31;100978.16;4993544;28;96914;-27
2023/07/02 05:01:42;;;;;;;6.53;1.75;;;;;;;15.88;67.35;100970.81;4995453;28;96785;-27
2023/07/02 05:04:13;;;;;;;7.25;2.03;;;;;;;15.90;67.68;100978.91;4993891;28;100951;-27
2023/07/02 05:06:38;;;;;;;5.47;2.03;;;;;;;15.92;67.01;100979.63;4993910;28;100971;-27
2023/07/02 05:09:04;;;;;;;4.70;1.77;;;;;;;15.97;67.55;100980.13;4995196;28;96546;-27
2023/07/02 05:11:29;;;;;;;4.93;2.47;;;;;;;15.99;67.55;100977.25;4995467;28;96924;-27
2023/07/02 05:13:55;;;;;;;7.70;2.22;;;;;;;16.08;67.58;100980.09;4995264;28;96768;-27
2023/07/02 05:16:20;;;;;;;5.03;1.95;;;;;;;16.06;67.42;100968.41;4995463;28;97692;-28
2023/07/02 05:18:45;;;;;;;6.03;2.28;;;;;;;16.11;67.72;100977.13;4994091;28;96563;-26
2023/07/02 05:21:11;;;;;;;8.30;1.92;;;;;;;16.07;67.46;100964.69;4995267;28;96731;-27
2023/07/02 05:23:37;;;;;;;7.00;2.03;;;;;;;16.13;67.50;100975.09;4994645;28;98013;-27
2023/07/02 05:26:02;;;;;;;4.90;1.83;;;;;;;16.16;67.46;100984.94;4995064;28;97753;-27
2023/07/02 05:28:27;;;;;;;6.68;2.22;;;;;;;16.19;67.93;100986.56;4994890;28;96594;-27
2023/07/02 05:30:53;;;;;;;4.95;1.83;;;;;;;16.20;67.90;100991.00;4994974;28;96777;-27
2023/07/02 05:33:18;;;;;;;6.00;1.90;;;;;;;16.16;67.53;100986.78;4995077;28;97466;-27
2023/07/02 05:35:45;;;;;;;10.20;2.03;;;;;;;16.18;67.53;100993.84;4993316;28;100559;-26
2023/07/02 05:38:10;;;;;;;4.95;2.00;;;;;;;16.22;67.22;100994.50;4993061;28;96628;-27
2023/07/02 05:40:36;;;;;;;6.38;2.17;;;;;;;16.22;67.41;100995.34;4995315;28;96796;-27
2023/07/02 05:43:01;;;;;;;7.47;2.55;;;;;;;16.22;67.14;100998.09;4994873;28;97266;-27
2023/07/02 05:45:27;;;;;;;7.55;2.35;;;;;;;16.27;67.40;101005.91;4994765;28;97890;-27
2023/07/02 05:47:52;;;;;;;4.93;2.00;;;;;;;16.28;67.08;101000.31;4992913;28;96652;-27
2023/07/02 05:50:18;;;;;;;6.63;2.28;;;;;;;16.38;67.23;101013.22;4994793;28;96754;-27
2023/07/02 05:52:43;;;;;;;4.25;1.70;;;;;;;16.37;67.13;101015.06;4994358;28;99278;-28
2023/07/02 05:55:11;;;;;;;6.57;1.98;;;;;;;16.32;66.01;101011.84;4994855;28;97780;-26
2023/07/02 05:57:38;;;;;;;6.13;1.83;;;;;;;16.29;66.16;101010.25;4994621;28;96649;-27
2023/07/02 06:00:07;;;;;;;8.65;2.00;;;;;;;16.35;66.30;101017.06;4992922;28;96962;-27
2023/07/02 06:02:32;;;;;;;6.93;2.33;;;;;;;16.37;66.45;101020.53;4992920;28;100890;-27
2023/07/02 06:04:58;;;;;;;10.45;2.38;;;;;;;16.31;66.46;101019.19;4993629;28;98962;-27
2023/07/02 06:07:26;;;;;;;16.30;1.92;;;;;;;16.32;65.73;101033.72;4994275;28;96554;-27
2023/07/02 06:09:51;;;;;;;5.65;2.15;;;;;;;16.31;66.33;101023.78;4994408;28;96872;-27
2023/07/02 06:12:17;;;;;;;7.10;2.08;;;;;;;16.40;66.27;101039.44;4994094;28;97909;-27
2023/07/02 06:14:42;;;;;;;4.45;1.48;;;;;;;16.42;65.77;101029.25;4994254;28;97324;-27
2023/07/02 06:17:08;;;;;;;9.60;3.13;;;;;;;16.46;65.80;101038.91;4994128;28;96636;-27
2023/07/02 06:19:33;;;;;;;7.07;2.20;;;;;;;16.50;66.06;101042.28;4994187;28;96830;-29
2023/07/02 06:21:59;;;;;;;5.70;1.80;;;;;;;16.49;65.74;101035.03;4994151;28;97893;-27
2023/07/02 06:24:25;;;;;;;8.23;2.10;;;;;;;16.51;65.31;101044.84;4992824;28;100620;-27
2023/07/02 06:26:50;;;;;;;3.65;1.88;;;;;;;16.53;64.71;101039.28;4994057;28;96654;-27
2023/07/02 06:29:16;;;;;;;14.55;1.65;;;;;;;16.65;65.19;101040.13;4994495;28;96986;-27
2023/07/02 06:31:41;;;;;;;4.68;1.60;;;;;;;16.70;64.17;101054.25;4993981;28;97937;-27
2023/07/02 06:34:08;;;;;;;4.75;1.98;;;;;;;16.73;64.73;101043.06;4993984;28;101870;-27
2023/07/02 06:36:34;;;;;;;5.20;1.77;;;;;;;17.04;65.05;101044.09;4992264;28;96663;-27
2023/07/02 06:38:59;;;;;;;6.63;2.17;;;;;;;17.11;64.13;101048.06;4993611;28;96686;-28
2023/07/02 06:41:24;;;;;;;8.48;1.85;;;;;;;17.18;63.50;101043.78;4994093;28;101016;-27
2023/07/02 06:43:49;;;;;;;4.28;1.65;;;;;;;17.25;62.55;101057.78;4993226;28;105749;-27
2023/07/02 06:46:15;;;;;;;7.13;2.28;;;;;;;17.28;62.32;101062.13;4994112;28;96456;-27
2023/07/02 06:48:40;;;;;;;6.80;1.92;;;;;;;17.26;62.50;101059.53;4993863;28;96731;-27
2023/07/02 06:51:07;;;;;;;5.53;2.17;;;;;;;17.37;61.82;101066.81;4993593;28;99528;-27
2023/07/02 06:53:32;;;;;;;4.85;2.05;;;;;;;17.55;61.85;101051.53;4992526;28;99594;-27
2023/07/02 06:55:58;;;;;;;3.72;1.90;;;;;;;17.78;60.69;101057.72;4993852;28;96455;-26
2023/07/02 06:58:23;;;;;;;6.05;1.98;;;;;;;17.96;59.32;101068.06;4993703;28;96879;-27
2023/07/02 07:00:48;;;;;;;7.35;2.05;;;;;;;18.12;58.74;101064.84;4993248;28;98116;-27
2023/07/02 07:03:14;;;;;;;6.10;2.42;;;;;;;18.11;59.30;101074.91;4993964;28;97067;-27
2023/07/02 07:05:39;;;;;;;6.50;2.10;;;;;;;18.06;59.37;101079.06;4993731;28;96587;-27
2023/07/02 07:08:04;;;;;;;8.43;2.20;;;;;;;18.09;58.78;101068.72;4993388;28;96884;-26
2023/07/02 07:10:34;;;;;;;6.22;2.25;;;;;;;18.15;58.54;101076.38;4993574;28;97649;-28
2023/07/02 07:13:04;;;;;;;6.32;2.08;;;;;;;18.17;58.70;101087.22;4992941;28;99245;-29
2023/07/02 07:15:34;;;;;;;7.57;2.28;;;;;;;18.19;56.57;101079.72;4993150;28;96681;-27
2023/07/02 07:18:00;;;;;;;4.03;1.73;;;;;;;18.33;57.27;101089.41;4993641;28;96768;-28
2023/07/02 07:20:25;;;;;;;5.47;1.92;;;;;;;18.41;57.56;101086.88;4991935;28;100875;-27
2023/07/02 07:22:51;;;;;;;5.60;2.05;;;;;;;18.50;57.45;101076.94;4993361;28;97195;-26
2023/07/02 07:25:16;;;;;;;6.35;2.25;;;;;;;18.73;57.67;101092.13;4992920;28;96506;-28
2023/07/02 07:27:41;;;;;;;10.60;1.77;;;;;;;18.89;57.18;101089.75;4992942;28;97975;-27
2023/07/02 07:30:07;;;;;;;4.30;1.83;;;;;;;19.03;57.42;101093.09;4993240;28;97965;-27
2023/07/02 07:32:32;;;;;;;5.90;2.30;;;;;;;19.06;56.79;101092.78;4992784;28;99032;-27
2023/07/02 07:34:58;;;;;;;3.88;1.60;;;;;;;19.07;57.42;101108.28;4993067;28;96750;-27
2023/07/02 07:37:25;;;;;;;11.93;1.92;;;;;;;19.03;55.81;101104.94;4992255;28;98709;-27
2023/07/02 07:39:50;;;;;;;5.45;1.88;;;;;;;19.07;54.56;101100.03;4991493;28;101228;-27
2023/07/02 07:42:16;;;;;;;9.80;1.77;;;;;;;19.15;54.87;101102.91;4993167;28;97031;-27
2023/07/02 07:44:42;;;;;;;3.42;1.75;;;;;;;19.21;53.94;101096.84;4991580;28;96814;-27
2023/07/02 07:47:07;;;;;;;5.85;1.60;;;;;;;19.26;54.13;101101.91;4991582;28;96887;-28
2023/07/02 07:49:33;;;;;;;6.70;2.05;;;;;;;19.16;53.28;101101.88;4992466;28;97328;-27
2023/07/02 07:51:58;;;;;;;4.82;1.95;;;;;;;19.24;53.24;101106.69;4992860;28;97838;-27
2023/07/02 07:54:24;;;;;;;5.68;1.52;;;;;;;19.17;52.74;101106.38;4992995;28;96540;-28
2023/07/02 07:56:50;;;;;;;9.00;2.47;;;;;;;19.14;54.21;101095.69;4992411;28;96808;-28
2023/07/02 07:59:15;;;;;;;6.75;2.00;;;;;;;19.05;55.20;101119.38;4993041;28;97334;-26
2023/07/02 08:01:41;;;;;;;4.50;1.52;;;;;;;18.80;53.91;101123.53;4991324;28;99363;-26
2023/07/02 08:04:06;;;;;;;4.75;1.95;;;;;;;18.53;55.26;101106.84;4992929;28;96727;-28
2023/07/02 08:06:31;;;;;;;6.40;1.92;;;;;;;18.49;53.49;101124.56;4993097;28;96760;-27
2023/07/02 08:08:57;;;;;;;5.35;2.00;;;;;;;18.63;53.78;101122.28;4992316;28;98773;-27
2023/07/02 08:11:22;;;;;;;4.78;1.75;;;;;;;18.87;54.25;101110.09;4992563;28;97397;-28
2023/07/02 08:13:47;;;;;;;3.63;2.00;;;;;;;19.08;53.56;101118.22;4992024;28;100785;-26
2023/07/02 08:16:13;;;;;;;6.00;1.80;;;;;;;19.28;52.47;101120.00;4992605;28;96772;-26
2023/07/02 08:18:38;;;;;;;5.60;1.75;;;;;;;19.18;53.79;101130.09;4990915;28;101155;-27
2023/07/02 08:21:06;;;;;;;7.20;1.73;;;;;;;19.32;53.12;101117.81;4991974;28;103399;-27
2023/07/02 08:23:31;;;;;;;6.72;2.13;;;;;;;19.59;52.33;101118.94;4990898;28;96778;-27
2023/07/02 08:25:57;;;;;;;5.78;1.65;;;;;;;19.81;52.46;101110.41;4999459;28;96962;-26
2023/07/02 08:28:22;;;;;;;5.07;1.92;;;;;;;19.92;51.09;101117.59;5011322;28;105258;-26
2023/07/02 08:30:47;;;;;;;3.70;1.92;;;;;;;20.05;50.62;101112.66;5012744;28;97773;-27
2023/07/02 08:33:13;;;;;;;4.47;1.67;;;;;;;20.16;50.59;101114.34;5012669;28;96665;-27
2023/07/02 08:35:38;;;;;;;4.97;2.13;;;;;;;20.25;50.88;101127.19;5011891;28;96794;-27
2023/07/02 08:38:04;;;;;;;3.03;1.35;;;;;;;20.46;50.68;101115.97;5010431;28;99227;-27
2023/07/02 08:40:29;;;;;;;4.47;1.70;;;;;;;20.63;49.58;101125.31;5011813;28;99470;-27
2023/07/02 08:42:55;;;;;;;5.90;1.83;;;;;;;20.82;49.24;101126.25;5012327;28;96556;-28
2023/07/02 08:45:26;;;;;;;4.65;1.90;;;;;;;20.91;48.87;101126.16;5012593;28;96748;-27
2023/07/02 08:47:53;;;;;;;3.25;1.50;;;;;;;20.88;46.50;101131.09;5010449;28;100641;-27
2023/07/02 08:50:19;;;;;;;6.10;1.83;;;;;;;21.04;47.35;101125.78;5010497;28;100945;-27
2023/07/02 08:52:45;;;;;;;3.35;1.40;;;;;;;20.84;46.88;101137.97;5012133;28;96580;-27
2023/07/02 08:55:10;;;;;;;2.63;1.38;;;;;;;20.75;47.91;101129.59;5012118;28;96853;-27
2023/07/02 08:57:36;;;;;;;4.65;1.77;;;;;;;21.05;48.46;101130.28;5009946;28;98769;-26
2023/07/02 09:00:11;;;;;;;5.88;1.77;;;;;;;21.20;47.59;101131.47;5010722;28;99297;-27
2023/07/02 09:02:36;;;;;;;6.45;1.83;;;;;;;21.21;48.69;101137.84;5010180;28;98339;-27
2023/07/02 09:05:03;;;;;;;2.28;1.52;;;;;;;21.10;45.71;101138.09;5011717;28;96787;-27
2023/07/02 09:07:28;;;;;;;5.80;1.70;;;;;;;20.99;45.01;101136.41;5009953;28;102001;-27
2023/07/02 09:09:54;;;;;;;5.25;1.25;;;;;;;21.09;45.54;101128.94;5011672;28;97809;-27
2023/07/02 09:12:22;;;;;;;3.42;1.60;;;;;;;20.81;45.98;101141.00;5011786;28;96482;-27
2023/07/02 09:14:54;;;;;;;3.92;1.60;;;;;;;20.95;45.96;101137.72;5011850;28;96903;-27
2023/07/02 09:17:20;;;;;;;8.15;1.67;;;;;;;20.95;46.05;101133.13;5010071;28;101232;-26
2023/07/02 09:19:51;;;;;;;4.57;1.35;;;;;;;21.05;46.47;101146.81;5011605;28;99225;-27
2023/07/02 09:22:17;;;;;;;5.55;1.70;;;;;;;21.27;46.50;101150.13;5011510;28;96604;-27
2023/07/02 09:24:54;;;;;;;2.92;1.08;;;;;;;21.36;44.53;101150.06;5011682;28;96682;-26
2023/07/02 09:27:20;;;;;;;3.75;1.10;;;;;;;21.22;42.96;101153.34;5010656;28;99719;-27
2023/07/02 09:29:51;;;;;;;2.47;1.20;;;;;;;21.39;45.26;101152.53;5009981;28;100585;-27
2023/07/02 09:32:25;;;;;;;2.70;1.40;;;;;;;21.56;42.77;101144.41;5011537;28;96585;-27
2023/07/02 09:34:50;;;;;;;3.33;1.42;;;;;;;21.62;42.63;101157.56;5011256;28;96820;-27
2023/07/02 09:37:16;;;;;;;4.85;1.40;;;;;;;21.57;43.41;101160.81;5009695;28;98361;-27
2023/07/02 09:39:42;;;;;;;5.05;1.50;;;;;;;21.48;43.78;101145.22;5011999;28;98802;-27
2023/07/02 09:42:09;;;;;;;3.13;1.35;;;;;;;21.29;44.15;101145.34;5012151;28;97168;-27
2023/07/02 09:44:35;;;;;;;2.22;1.17;;;;;;;21.45;43.34;101148.25;5013200;28;96914;-27
2023/07/02 09:47:06;;;;;;;4.40;1.23;;;;;;;21.30;42.21;101156.19;5012502;28;101312;-27
2023/07/02 09:49:33;;;;;;;2.90;1.40;;;;;;;21.09;42.83;101162.00;5011297;28;100853;-31
2023/07/02 09:52:10;;;;;;;3.30;1.05;;;;;;;21.00;43.31;101146.41;5011288;28;97135;-27
2023/07/02 09:54:36;;;;;;;3.00;1.23;;;;;;;21.30;42.26;101158.94;5012007;28;97712;-27
2023/07/02 09:57:03;;;;;;;3.20;1.40;;;;;;;21.67;43.70;101143.31;5010677;28;101022;-27
2023/07/02 09:59:29;;;;;;;3.17;1.40;;;;;;;22.04;43.43;101151.31;5010426;28;102052;-28
2023/07/02 10:01:55;;;;;;;4.47;1.20;;;;;;;22.31;43.07;101153.09;5010433;28;97195;-32
2023/07/02 10:04:23;;;;;;;4.30;1.48;;;;;;;22.46;42.28;101154.19;5012234;28;96671;-31
2023/07/02 10:06:50;;;;;;;3.30;1.52;;;;;;;22.58;41.47;101153.91;5010308;28;101316;-30
2023/07/02 10:09:16;;;;;;;2.92;1.17;;;;;;;22.69;41.50;101148.06;5010564;28;98353;-33
2023/07/02 10:11:41;;;;;;;5.38;1.60;;;;;;;22.82;42.26;101154.00;5011379;28;97109;-32
2023/07/02 10:14:07;;;;;;;2.67;1.33;;;;;;;23.02;40.89;101151.84;5012028;28;97088;-28
2023/07/02 10:16:32;;;;;;;3.78;1.70;;;;;;;23.15;41.21;101173.50;5012219;28;101328;-27
2023/07/02 10:19:13;;;;;;;3.58;1.50;;;;;;;23.17;39.21;101154.84;5014311;28;97093;-28
2023/07/02 10:21:38;;;;;;;6.78;1.42;;;;;;;23.30;41.60;101157.09;5014702;28;96674;-28
2023/07/02 10:24:14;;;;;;;1.98;1.20;;;;;;;23.48;39.32;101160.59;5014465;28;96795;-27
2023/07/02 10:26:55;;;;;;;2.95;1.52;;;;;;;23.38;37.58;101159.88;5012245;28;101156;-28
2023/07/02 10:29:24;;;;;;;3.83;1.65;;;;;;;23.44;38.67;101150.91;5012629;28;98856;-27
2023/07/02 10:31:51;;;;;;;3.70;1.55;;;;;;;23.35;39.48;101173.19;5012525;28;96681;-27
2023/07/02 10:34:27;;;;;;;2.75;1.27;;;;;;;23.36;39.24;101173.03;5014151;28;96786;-28
2023/07/02 10:36:55;;;;;;;5.05;2.10;;;;;;;23.48;37.52;101168.03;5013162;28;99207;-28
2023/07/02 10:39:21;;;;;;;3.42;1.60;;;;;;;23.44;38.63;101177.69;5013675;28;97845;-28
2023/07/02 10:41:46;;;;;;;3.10;1.50;;;;;;;23.52;39.16;101163.88;5013611;28;96569;-28
2023/07/02 10:44:12;;;;;;;3.97;1.20;;;;;;;23.69;39.50;101173.94;5012365;28;97953;-27
2023/07/02 10:46:47;;;;;;;3.65;1.45;;;;;;;23.90;37.82;101178.94;5013520;28;99518;-27
2023/07/02 10:49:17;;;;;;;3.63;1.58;;;;;;;23.86;37.38;101163.75;5011366;28;101425;-28
2023/07/02 10:51:43;;;;;;;5.13;1.63;;;;;;;23.96;38.20;101177.41;5012853;28;96619;-28
2023/07/02 10:54:08;;;;;;;4.05;1.70;;;;;;;23.97;37.28;101165.28;5013671;28;96940;-27
2023/07/02 10:56:35;;;;;;;2.97;1.17;;;;;;;23.76;37.53;101168.56;5013367;28;97858;-27
2023/07/02 10:59:00;;;;;;;5.72;2.50;;;;;;;23.71;38.97;101166.28;5010285;28;101302;-29
2023/07/02 11:01:31;;;;;;;4.38;1.30;;;;;;;23.89;38.57;101174.47;5010805;28;96947;-27
2023/07/02 11:03:58;;;;;;;5.68;1.70;;;;;;;23.71;37.96;101182.03;5009994;28;97395;-28
2023/07/02 11:06:23;;;;;;;5.57;1.80;;;;;;;23.56;39.96;101175.47;5009310;28;101221;-29
2023/07/02 11:08:49;;;;;;;5.55;1.73;;;;;;;23.48;39.53;101176.34;5011513;28;98375;-28
2023/07/02 11:11:15;;;;;;;6.65;1.67;;;;;;;23.33;39.55;101178.88;5011754;28;96712;-31
2023/07/02 11:13:49;;;;;;;4.90;1.65;;;;;;;22.80;40.06;101189.22;5012607;28;96741;-27
2023/07/02 11:16:19;;;;;;;6.32;1.58;;;;;;;22.61;39.51;101186.72;5013637;28;97997;-29
2023/07/02 11:18:45;;;;;;;4.15;1.88;;;;;;;22.78;40.13;101188.50;5011836;28;100870;-27
2023/07/02 11:21:10;;;;;;;6.35;2.17;;;;;;;23.02;41.17;101182.25;5013654;28;96558;-27